sensor_id;sensor_type;location;lat;lon;timestamp;pressure;altitude;pressure_sealevel;temperature;humidity
73671;BME280;61968;48.178;11.566;2022-07-29T00:01:22;95701.03;;;20.97;36.01
73671;BME280;61968;48.178;11.566;2022-07-29T00:03:48;95696.53;;;20.78;36.51
73671;BME280;61968;48.178;11.566;2022-07-29T00:06:15;95694.75;;;21.01;36.05
73671;BME280;61968;48.178;11.566;2022-07-29T00:08:41;95691.78;;;21.03;36.12
73671;BME280;61968;48.178;11.566;2022-07-29T00:11:08;95683.88;;;20.93;36.40
73671;BME280;61968;48.178;11.566;2022-07-29T00:13:36;95690.97;;;21.02;36.24
73671;BME280;61968;48.178;11.566;2022-07-29T00:16:03;95690.09;;;21.21;35.97
73671;BME280;61968;48.178;11.566;2022-07-29T00:18:29;95692.06;;;21.43;35.58
73671;BME280;61968;48.178;11.566;2022-07-29T00:20:56;95690.06;;;21.35;36.00
73671;BME280;61968;48.178;11.566;2022-07-29T00:23:22;95689.28;;;21.20;36.25
73671;BME280;61968;48.178;11.566;2022-07-29T00:25:49;95698.53;;;21.00;36.94
73671;BME280;61968;48.178;11.566;2022-07-29T00:28:15;95702.22;;;20.91;37.35
73671;BME280;61968;48.178;11.566;2022-07-29T00:30:43;95707.06;;;20.75;37.73
73671;BME280;61968;48.178;11.566;2022-07-29T00:33:10;95708.78;;;20.84;37.57
73671;BME280;61968;48.178;11.566;2022-07-29T00:35:36;95704.59;;;20.78;38.35
73671;BME280;61968;48.178;11.566;2022-07-29T00:38:12;95699.09;;;20.83;37.96
73671;BME280;61968;48.178;11.566;2022-07-29T00:40:39;95690.28;;;20.97;37.99
73671;BME280;61968;48.178;11.566;2022-07-29T00:43:06;95695.97;;;21.09;37.65
73671;BME280;61968;48.178;11.566;2022-07-29T00:45:33;95691.88;;;21.12;37.63
73671;BME280;61968;48.178;11.566;2022-07-29T00:48:01;95684.81;;;21.29;37.37
73671;BME280;61968;48.178;11.566;2022-07-29T00:50:28;95679.53;;;21.24;37.30
73671;BME280;61968;48.178;11.566;2022-07-29T00:52:55;95673.81;;;21.40;36.82
73671;BME280;61968;48.178;11.566;2022-07-29T00:55:22;95668.38;;;21.03;37.64
73671;BME280;61968;48.178;11.566;2022-07-29T00:57:48;95664.59;;;21.04;37.62
73671;BME280;61968;48.178;11.566;2022-07-29T01:00:17;95660.13;;;21.00;37.78
73671;BME280;61968;48.178;11.566;2022-07-29T01:02:44;95661.69;;;21.01;37.82
73671;BME280;61968;48.178;11.566;2022-07-29T01:05:16;95658.03;;;20.97;37.47
73671;BME280;61968;48.178;11.566;2022-07-29T01:07:44;95648.94;;;20.93;37.81
73671;BME280;61968;48.178;11.566;2022-07-29T01:10:13;95646.47;;;21.10;37.23
73671;BME280;61968;48.178;11.566;2022-07-29T01:12:41;95650.63;;;21.30;36.60
73671;BME280;61968;48.178;11.566;2022-07-29T01:15:09;95645.75;;;21.46;36.26
73671;BME280;61968;48.178;11.566;2022-07-29T01:17:41;95648.16;;;21.47;35.52
73671;BME280;61968;48.178;11.566;2022-07-29T01:20:13;95648.34;;;21.51;35.35
73671;BME280;61968;48.178;11.566;2022-07-29T01:22:59;95653.59;;;21.56;35.98
73671;BME280;61968;48.178;11.566;2022-07-29T01:25:45;95653.47;;;21.61;35.25
73671;BME280;61968;48.178;11.566;2022-07-29T01:28:38;95657.75;;;21.62;35.45
73671;BME280;61968;48.178;11.566;2022-07-29T01:31:07;95649.94;;;21.74;35.42
73671;BME280;61968;48.178;11.566;2022-07-29T01:33:41;95657.63;;;21.81;34.78
73671;BME280;61968;48.178;11.566;2022-07-29T01:36:18;95656.91;;;21.39;35.63
73671;BME280;61968;48.178;11.566;2022-07-29T01:38:52;95642.34;;;21.54;35.23
73671;BME280;61968;48.178;11.566;2022-07-29T01:41:21;95643.41;;;21.67;35.42
73671;BME280;61968;48.178;11.566;2022-07-29T01:43:54;95641.75;;;21.80;35.04
73671;BME280;61968;48.178;11.566;2022-07-29T01:46:27;95646.09;;;21.89;34.89
73671;BME280;61968;48.178;11.566;2022-07-29T01:48:58;95642.28;;;22.04;34.66
73671;BME280;61968;48.178;11.566;2022-07-29T01:51:31;95650.25;;;22.09;34.29
73671;BME280;61968;48.178;11.566;2022-07-29T01:54:04;95649.63;;;22.12;34.26
73671;BME280;61968;48.178;11.566;2022-07-29T01:56:33;95651.44;;;22.17;34.32
73671;BME280;61968;48.178;11.566;2022-07-29T01:59:04;95644.59;;;22.19;34.38
73671;BME280;61968;48.178;11.566;2022-07-29T02:01:33;95642.59;;;22.25;34.26
73671;BME280;61968;48.178;11.566;2022-07-29T02:04:03;95647.06;;;22.30;34.70
73671;BME280;61968;48.178;11.566;2022-07-29T02:06:32;95646.13;;;22.34;34.34
73671;BME280;61968;48.178;11.566;2022-07-29T02:09:00;95640.28;;;22.32;34.56
73671;BME280;61968;48.178;11.566;2022-07-29T02:11:29;95631.88;;;22.34;34.42
73671;BME280;61968;48.178;11.566;2022-07-29T02:13:57;95623.16;;;22.37;34.74
73671;BME280;61968;48.178;11.566;2022-07-29T02:16:27;95620.97;;;22.39;34.54
73671;BME280;61968;48.178;11.566;2022-07-29T02:18:56;95623.34;;;22.40;34.83
73671;BME280;61968;48.178;11.566;2022-07-29T02:21:26;95623.66;;;22.39;35.26
73671;BME280;61968;48.178;11.566;2022-07-29T02:23:54;95615.66;;;22.25;35.31
73671;BME280;61968;48.178;11.566;2022-07-29T02:26:24;95613.06;;;22.11;35.35
73671;BME280;61968;48.178;11.566;2022-07-29T02:28:55;95612.44;;;22.14;35.76
73671;BME280;61968;48.178;11.566;2022-07-29T02:31:24;95613.59;;;22.22;35.60
73671;BME280;61968;48.178;11.566;2022-07-29T02:33:53;95608.53;;;22.20;35.21
73671;BME280;61968;48.178;11.566;2022-07-29T02:36:22;95606.50;;;22.26;35.61
73671;BME280;61968;48.178;11.566;2022-07-29T02:38:52;95600.78;;;22.28;34.94
73671;BME280;61968;48.178;11.566;2022-07-29T02:41:26;95601.72;;;22.23;35.81
73671;BME280;61968;48.178;11.566;2022-07-29T02:43:56;95608.88;;;22.28;35.47
73671;BME280;61968;48.178;11.566;2022-07-29T02:46:28;95605.38;;;22.27;35.39
73671;BME280;61968;48.178;11.566;2022-07-29T02:48:57;95613.72;;;22.17;35.30
73671;BME280;61968;48.178;11.566;2022-07-29T02:51:28;95608.16;;;22.13;33.73
73671;BME280;61968;48.178;11.566;2022-07-29T02:53:56;95612.22;;;22.02;34.37
73671;BME280;61968;48.178;11.566;2022-07-29T02:56:25;95607.53;;;21.94;34.08
73671;BME280;61968;48.178;11.566;2022-07-29T02:58:54;95602.50;;;22.01;34.26
73671;BME280;61968;48.178;11.566;2022-07-29T03:01:24;95599.59;;;22.11;34.17
73671;BME280;61968;48.178;11.566;2022-07-29T03:03:53;95597.56;;;22.17;34.21
73671;BME280;61968;48.178;11.566;2022-07-29T03:06:23;95587.72;;;22.12;34.05
73671;BME280;61968;48.178;11.566;2022-07-29T03:08:53;95592.97;;;22.17;33.92
73671;BME280;61968;48.178;11.566;2022-07-29T03:11:20;95601.06;;;22.17;33.08
73671;BME280;61968;48.178;11.566;2022-07-29T03:13:47;95603.38;;;22.10;33.49
73671;BME280;61968;48.178;11.566;2022-07-29T03:16:15;95602.28;;;22.11;33.34
73671;BME280;61968;48.178;11.566;2022-07-29T03:18:42;95600.00;;;22.05;33.83
73671;BME280;61968;48.178;11.566;2022-07-29T03:21:09;95601.13;;;22.04;33.80
73671;BME280;61968;48.178;11.566;2022-07-29T03:23:36;95605.59;;;22.08;34.10
73671;BME280;61968;48.178;11.566;2022-07-29T03:26:03;95601.19;;;22.12;34.36
73671;BME280;61968;48.178;11.566;2022-07-29T03:28:30;95600.72;;;22.19;34.62
73671;BME280;61968;48.178;11.566;2022-07-29T03:30:57;95598.22;;;22.22;34.74
73671;BME280;61968;48.178;11.566;2022-07-29T03:33:23;95597.31;;;22.27;34.41
73671;BME280;61968;48.178;11.566;2022-07-29T03:35:50;95597.59;;;22.26;34.94
73671;BME280;61968;48.178;11.566;2022-07-29T03:38:16;95598.72;;;22.25;34.94
73671;BME280;61968;48.178;11.566;2022-07-29T03:40:47;95600.63;;;22.24;34.66
73671;BME280;61968;48.178;11.566;2022-07-29T03:43:15;95596.34;;;22.23;35.33
73671;BME280;61968;48.178;11.566;2022-07-29T03:45:47;95608.53;;;22.20;35.36
73671;BME280;61968;48.178;11.566;2022-07-29T03:48:16;95598.38;;;22.17;35.23
73671;BME280;61968;48.178;11.566;2022-07-29T03:50:44;95603.13;;;22.20;35.36
73671;BME280;61968;48.178;11.566;2022-07-29T03:53:10;95602.63;;;22.18;35.18
73671;BME280;61968;48.178;11.566;2022-07-29T03:55:42;95605.88;;;22.07;35.47
73671;BME280;61968;48.178;11.566;2022-07-29T03:58:11;95605.59;;;22.08;35.42
73671;BME280;61968;48.178;11.566;2022-07-29T04:00:39;95607.97;;;22.10;35.79
73671;BME280;61968;48.178;11.566;2022-07-29T04:03:06;95618.25;;;22.08;35.67
73671;BME280;61968;48.178;11.566;2022-07-29T04:05:33;95616.38;;;22.08;35.68
73671;BME280;61968;48.178;11.566;2022-07-29T04:07:59;95612.38;;;22.06;35.94
73671;BME280;61968;48.178;11.566;2022-07-29T04:10:26;95611.78;;;22.09;35.79
73671;BME280;61968;48.178;11.566;2022-07-29T04:12:52;95617.16;;;22.09;36.02
73671;BME280;61968;48.178;11.566;2022-07-29T04:15:20;95610.16;;;22.08;35.96
73671;BME280;61968;48.178;11.566;2022-07-29T04:17:47;95609.53;;;22.11;35.42
73671;BME280;61968;48.178;11.566;2022-07-29T04:20:13;95612.72;;;22.13;36.09
73671;BME280;61968;48.178;11.566;2022-07-29T04:22:40;95618.91;;;22.13;35.73
73671;BME280;61968;48.178;11.566;2022-07-29T04:25:07;95614.63;;;22.12;35.95
73671;BME280;61968;48.178;11.566;2022-07-29T04:27:34;95619.69;;;22.14;36.02
73671;BME280;61968;48.178;11.566;2022-07-29T04:30:22;95622.09;;;22.15;35.69
73671;BME280;61968;48.178;11.566;2022-07-29T04:32:48;95624.00;;;22.15;35.80
73671;BME280;61968;48.178;11.566;2022-07-29T04:35:15;95625.91;;;22.14;35.84
73671;BME280;61968;48.178;11.566;2022-07-29T04:37:41;95634.44;;;22.16;35.49
73671;BME280;61968;48.178;11.566;2022-07-29T04:40:09;95636.69;;;22.14;36.00
73671;BME280;61968;48.178;11.566;2022-07-29T04:42:36;95635.28;;;22.17;35.86
73671;BME280;61968;48.178;11.566;2022-07-29T04:45:03;95631.75;;;22.16;36.01
73671;BME280;61968;48.178;11.566;2022-07-29T04:47:30;95640.34;;;22.18;36.19
73671;BME280;61968;48.178;11.566;2022-07-29T04:49:57;95642.41;;;22.21;35.81
73671;BME280;61968;48.178;11.566;2022-07-29T04:52:24;95640.22;;;22.24;36.10
73671;BME280;61968;48.178;11.566;2022-07-29T04:54:50;95646.22;;;22.20;35.90
73671;BME280;61968;48.178;11.566;2022-07-29T04:57:16;95639.44;;;22.23;35.83
73671;BME280;61968;48.178;11.566;2022-07-29T04:59:43;95645.91;;;22.22;35.93
73671;BME280;61968;48.178;11.566;2022-07-29T05:02:10;95644.00;;;22.22;35.75
73671;BME280;61968;48.178;11.566;2022-07-29T05:04:37;95649.31;;;22.14;36.15
73671;BME280;61968;48.178;11.566;2022-07-29T05:07:04;95649.53;;;22.17;35.96
73671;BME280;61968;48.178;11.566;2022-07-29T05:09:30;95652.22;;;22.17;35.84
73671;BME280;61968;48.178;11.566;2022-07-29T05:11:57;95659.97;;;22.19;35.90
73671;BME280;61968;48.178;11.566;2022-07-29T05:14:23;95648.59;;;22.22;35.68
73671;BME280;61968;48.178;11.566;2022-07-29T05:16:50;95646.22;;;22.20;35.71
73671;BME280;61968;48.178;11.566;2022-07-29T05:19:18;95659.00;;;22.15;35.39
73671;BME280;61968;48.178;11.566;2022-07-29T05:21:45;95648.06;;;22.11;35.27
73671;BME280;61968;48.178;11.566;2022-07-29T05:24:12;95653.00;;;22.18;35.62
73671;BME280;61968;48.178;11.566;2022-07-29T05:26:39;95653.81;;;22.18;35.67
73671;BME280;61968;48.178;11.566;2022-07-29T05:29:06;95657.41;;;22.14;35.65
73671;BME280;61968;48.178;11.566;2022-07-29T05:31:32;95660.69;;;22.11;35.73
73671;BME280;61968;48.178;11.566;2022-07-29T05:33:59;95661.72;;;22.01;36.05
73671;BME280;61968;48.178;11.566;2022-07-29T05:36:26;95660.94;;;22.00;36.00
73671;BME280;61968;48.178;11.566;2022-07-29T05:38:54;95671.44;;;22.02;35.85
73671;BME280;61968;48.178;11.566;2022-07-29T05:41:20;95671.00;;;22.09;35.62
73671;BME280;61968;48.178;11.566;2022-07-29T05:43:47;95668.50;;;22.12;35.33
73671;BME280;61968;48.178;11.566;2022-07-29T05:46:13;95670.28;;;22.17;35.99
73671;BME280;61968;48.178;11.566;2022-07-29T05:48:40;95663.78;;;22.18;36.00
73671;BME280;61968;48.178;11.566;2022-07-29T05:51:06;95668.59;;;22.07;35.95
73671;BME280;61968;48.178;11.566;2022-07-29T05:53:33;95666.41;;;22.09;35.82
73671;BME280;61968;48.178;11.566;2022-07-29T05:56:04;95681.31;;;21.93;35.96
73671;BME280;61968;48.178;11.566;2022-07-29T05:58:30;95672.06;;;21.85;35.69
73671;BME280;61968;48.178;11.566;2022-07-29T06:00:57;95667.09;;;21.79;35.40
73671;BME280;61968;48.178;11.566;2022-07-29T06:03:24;95664.31;;;21.70;36.07
73671;BME280;61968;48.178;11.566;2022-07-29T06:05:50;95667.31;;;21.68;35.56
73671;BME280;61968;48.178;11.566;2022-07-29T06:08:17;95674.63;;;21.40;36.20
73671;BME280;61968;48.178;11.566;2022-07-29T06:10:44;95680.31;;;21.39;36.02
73671;BME280;61968;48.178;11.566;2022-07-29T06:13:12;95674.03;;;21.43;36.50
73671;BME280;61968;48.178;11.566;2022-07-29T06:15:41;95675.31;;;21.60;36.22
73671;BME280;61968;48.178;11.566;2022-07-29T06:18:07;95671.22;;;21.62;36.16
73671;BME280;61968;48.178;11.566;2022-07-29T06:20:35;95670.88;;;21.77;36.30
73671;BME280;61968;48.178;11.566;2022-07-29T06:23:02;95675.59;;;21.94;35.59
73671;BME280;61968;48.178;11.566;2022-07-29T06:25:29;95666.63;;;21.99;35.63
73671;BME280;61968;48.178;11.566;2022-07-29T06:27:57;95679.56;;;22.11;35.31
73671;BME280;61968;48.178;11.566;2022-07-29T06:30:25;95682.91;;;22.16;35.14
73671;BME280;61968;48.178;11.566;2022-07-29T06:32:52;95672.03;;;22.21;35.34
73671;BME280;61968;48.178;11.566;2022-07-29T06:35:18;95677.13;;;22.23;34.82
73671;BME280;61968;48.178;11.566;2022-07-29T06:37:45;95681.28;;;22.29;34.79
73671;BME280;61968;48.178;11.566;2022-07-29T06:40:11;95674.06;;;22.38;34.86
73671;BME280;61968;48.178;11.566;2022-07-29T06:42:55;95679.84;;;22.32;34.08
73671;BME280;61968;48.178;11.566;2022-07-29T06:45:22;95685.88;;;22.06;34.38
73671;BME280;61968;48.178;11.566;2022-07-29T06:47:50;95683.00;;;21.89;34.70
73671;BME280;61968;48.178;11.566;2022-07-29T06:50:18;95686.91;;;21.83;34.77
73671;BME280;61968;48.178;11.566;2022-07-29T06:52:45;95683.44;;;21.68;34.84
73671;BME280;61968;48.178;11.566;2022-07-29T06:55:11;95684.50;;;21.45;35.30
73671;BME280;61968;48.178;11.566;2022-07-29T06:57:37;95687.47;;;21.57;34.82
73671;BME280;61968;48.178;11.566;2022-07-29T07:00:05;95688.28;;;21.44;34.79
73671;BME280;61968;48.178;11.566;2022-07-29T07:02:32;95694.25;;;21.54;34.47
73671;BME280;61968;48.178;11.566;2022-07-29T07:05:00;95695.66;;;21.52;34.25
73671;BME280;61968;48.178;11.566;2022-07-29T07:07:26;95702.22;;;21.18;34.87
73671;BME280;61968;48.178;11.566;2022-07-29T07:09:53;95703.63;;;21.16;34.81
73671;BME280;61968;48.178;11.566;2022-07-29T07:12:19;95708.09;;;21.34;34.45
73671;BME280;61968;48.178;11.566;2022-07-29T07:14:46;95700.66;;;21.45;34.11
73671;BME280;61968;48.178;11.566;2022-07-29T07:17:13;95698.44;;;21.47;34.19
73671;BME280;61968;48.178;11.566;2022-07-29T07:19:39;95692.78;;;21.48;33.68
73671;BME280;61968;48.178;11.566;2022-07-29T07:22:07;95697.03;;;21.49;33.83
73671;BME280;61968;48.178;11.566;2022-07-29T07:24:34;95699.31;;;21.56;33.87
73671;BME280;61968;48.178;11.566;2022-07-29T07:27:00;95689.38;;;21.57;33.99
73671;BME280;61968;48.178;11.566;2022-07-29T07:29:27;95685.25;;;21.59;34.01
73671;BME280;61968;48.178;11.566;2022-07-29T07:31:53;95693.19;;;21.42;33.86
73671;BME280;61968;48.178;11.566;2022-07-29T07:34:20;95690.78;;;21.13;34.89
73671;BME280;61968;48.178;11.566;2022-07-29T07:36:46;95687.50;;;21.29;34.76
73671;BME280;61968;48.178;11.566;2022-07-29T07:39:14;95684.66;;;21.62;33.93
73671;BME280;61968;48.178;11.566;2022-07-29T07:41:41;95686.88;;;21.60;34.20
73671;BME280;61968;48.178;11.566;2022-07-29T07:44:07;95682.44;;;21.42;34.66
73671;BME280;61968;48.178;11.566;2022-07-29T07:46:34;95679.31;;;21.48;34.59
73671;BME280;61968;48.178;11.566;2022-07-29T07:49:00;95687.00;;;21.41;33.25
73671;BME280;61968;48.178;11.566;2022-07-29T07:51:26;95698.25;;;21.29;33.75
73671;BME280;61968;48.178;11.566;2022-07-29T07:53:53;95696.44;;;21.39;33.68
73671;BME280;61968;48.178;11.566;2022-07-29T07:56:21;95690.88;;;21.49;33.76
73671;BME280;61968;48.178;11.566;2022-07-29T07:58:47;95686.03;;;21.73;33.38
73671;BME280;61968;48.178;11.566;2022-07-29T08:01:14;95687.75;;;21.69;32.74
73671;BME280;61968;48.178;11.566;2022-07-29T08:03:44;95687.34;;;21.62;32.87
73671;BME280;61968;48.178;11.566;2022-07-29T08:06:10;95692.28;;;21.05;33.55
73671;BME280;61968;48.178;11.566;2022-07-29T08:08:37;95691.47;;;21.18;33.40
73671;BME280;61968;48.178;11.566;2022-07-29T08:11:03;95692.88;;;21.43;33.31
73671;BME280;61968;48.178;11.566;2022-07-29T08:13:32;95698.94;;;21.49;33.71
73671;BME280;61968;48.178;11.566;2022-07-29T08:15:59;95690.81;;;21.76;32.97
73671;BME280;61968;48.178;11.566;2022-07-29T08:18:28;95699.53;;;21.96;32.66
73671;BME280;61968;48.178;11.566;2022-07-29T08:20:55;95701.84;;;22.03;32.53
73671;BME280;61968;48.178;11.566;2022-07-29T08:23:21;95703.31;;;21.95;32.50
73671;BME280;61968;48.178;11.566;2022-07-29T08:25:49;95701.38;;;21.87;32.56
73671;BME280;61968;48.178;11.566;2022-07-29T08:28:15;95697.50;;;21.65;32.68
73671;BME280;61968;48.178;11.566;2022-07-29T08:30:43;95688.72;;;21.73;32.86
73671;BME280;61968;48.178;11.566;2022-07-29T08:33:10;95689.69;;;21.77;32.60
73671;BME280;61968;48.178;11.566;2022-07-29T08:35:38;95691.41;;;21.87;32.57
73671;BME280;61968;48.178;11.566;2022-07-29T08:38:04;95699.63;;;22.05;34.05
73671;BME280;61968;48.178;11.566;2022-07-29T08:40:31;95700.00;;;22.34;32.71
73671;BME280;61968;48.178;11.566;2022-07-29T08:42:57;95698.34;;;22.47;33.22
73671;BME280;61968;48.178;11.566;2022-07-29T08:45:24;95692.28;;;22.64;31.59
73671;BME280;61968;48.178;11.566;2022-07-29T08:47:52;95701.63;;;22.44;31.88
73671;BME280;61968;48.178;11.566;2022-07-29T08:50:19;95701.03;;;22.47;32.26
73671;BME280;61968;48.178;11.566;2022-07-29T08:52:46;95698.66;;;22.45;33.23
73671;BME280;61968;48.178;11.566;2022-07-29T08:55:15;95706.44;;;22.25;33.30
73671;BME280;61968;48.178;11.566;2022-07-29T08:57:43;95697.13;;;22.08;32.63
73671;BME280;61968;48.178;11.566;2022-07-29T09:00:10;95695.78;;;22.19;32.99
73671;BME280;61968;48.178;11.566;2022-07-29T09:02:40;95697.19;;;21.81;32.96
73671;BME280;61968;48.178;11.566;2022-07-29T09:05:09;95703.50;;;21.98;33.45
73671;BME280;61968;48.178;11.566;2022-07-29T09:07:35;95710.47;;;22.13;33.21
73671;BME280;61968;48.178;11.566;2022-07-29T09:10:04;95714.69;;;21.92;33.82
73671;BME280;61968;48.178;11.566;2022-07-29T09:12:31;95712.88;;;22.15;33.93
73671;BME280;61968;48.178;11.566;2022-07-29T09:14:57;95715.50;;;22.51;33.30
73671;BME280;61968;48.178;11.566;2022-07-29T09:17:40;95720.94;;;22.60;33.11
73671;BME280;61968;48.178;11.566;2022-07-29T09:20:13;95715.00;;;22.72;33.05
73671;BME280;61968;48.178;11.566;2022-07-29T09:22:43;95715.25;;;22.61;32.89
73671;BME280;61968;48.178;11.566;2022-07-29T09:25:12;95714.19;;;22.71;33.11
73671;BME280;61968;48.178;11.566;2022-07-29T09:27:38;95716.03;;;22.84;33.84
73671;BME280;61968;48.178;11.566;2022-07-29T09:30:07;95708.44;;;22.95;32.67
73671;BME280;61968;48.178;11.566;2022-07-29T09:32:54;95707.34;;;22.96;33.12
73671;BME280;61968;48.178;11.566;2022-07-29T09:35:24;95704.34;;;22.98;32.79
73671;BME280;61968;48.178;11.566;2022-07-29T09:37:51;95712.59;;;23.01;32.93
73671;BME280;61968;48.178;11.566;2022-07-29T09:40:19;95701.19;;;22.96;32.73
73671;BME280;61968;48.178;11.566;2022-07-29T09:42:46;95703.72;;;23.01;33.04
73671;BME280;61968;48.178;11.566;2022-07-29T09:45:26;95701.03;;;22.70;33.11
73671;BME280;61968;48.178;11.566;2022-07-29T09:47:53;95704.84;;;22.69;32.46
73671;BME280;61968;48.178;11.566;2022-07-29T09:50:21;95706.78;;;22.77;33.25
73671;BME280;61968;48.178;11.566;2022-07-29T09:52:52;95700.63;;;22.85;33.20
73671;BME280;61968;48.178;11.566;2022-07-29T09:55:19;95698.84;;;22.80;33.06
73671;BME280;61968;48.178;11.566;2022-07-29T09:57:46;95696.94;;;22.50;33.08
73671;BME280;61968;48.178;11.566;2022-07-29T10:00:15;95700.44;;;22.73;33.89
73671;BME280;61968;48.178;11.566;2022-07-29T10:02:43;95701.34;;;22.45;33.29
73671;BME280;61968;48.178;11.566;2022-07-29T10:05:19;95702.97;;;22.55;33.64
73671;BME280;61968;48.178;11.566;2022-07-29T10:07:49;95700.53;;;22.67;32.87
73671;BME280;61968;48.178;11.566;2022-07-29T10:10:22;95698.22;;;22.52;33.24
73671;BME280;61968;48.178;11.566;2022-07-29T10:12:51;95699.13;;;22.70;33.31
73671;BME280;61968;48.178;11.566;2022-07-29T10:15:18;95696.09;;;22.94;33.06
73671;BME280;61968;48.178;11.566;2022-07-29T10:17:46;95701.28;;;23.22;32.55
73671;BME280;61968;48.178;11.566;2022-07-29T10:20:14;95692.19;;;23.09;32.87
73671;BME280;61968;48.178;11.566;2022-07-29T10:22:41;95698.69;;;23.17;32.69
73671;BME280;61968;48.178;11.566;2022-07-29T10:25:09;95693.28;;;23.17;32.64
73671;BME280;61968;48.178;11.566;2022-07-29T10:27:37;95702.25;;;23.26;32.03
73671;BME280;61968;48.178;11.566;2022-07-29T10:30:06;95698.63;;;23.30;32.13
73671;BME280;61968;48.178;11.566;2022-07-29T10:32:40;95699.75;;;23.38;32.38
73671;BME280;61968;48.178;11.566;2022-07-29T10:35:19;95700.03;;;23.28;32.40
73671;BME280;61968;48.178;11.566;2022-07-29T10:38:07;95698.00;;;23.33;32.31
73671;BME280;61968;48.178;11.566;2022-07-29T10:40:41;95696.41;;;23.32;32.70
73671;BME280;61968;48.178;11.566;2022-07-29T10:43:32;95695.16;;;23.07;32.30
73671;BME280;61968;48.178;11.566;2022-07-29T10:46:03;95700.94;;;23.15;31.67
73671;BME280;61968;48.178;11.566;2022-07-29T10:48:30;95694.91;;;23.18;31.96
73671;BME280;61968;48.178;11.566;2022-07-29T10:50:59;95700.34;;;22.95;31.89
73671;BME280;61968;48.178;11.566;2022-07-29T10:53:47;95698.69;;;23.08;31.58
73671;BME280;61968;48.178;11.566;2022-07-29T10:56:25;95692.84;;;23.15;32.32
73671;BME280;61968;48.178;11.566;2022-07-29T10:59:24;95685.38;;;23.11;31.73
73671;BME280;61968;48.178;11.566;2022-07-29T11:01:52;95679.44;;;23.01;31.93
73671;BME280;61968;48.178;11.566;2022-07-29T11:07:18;95677.22;;;23.43;31.59
73671;BME280;61968;48.178;11.566;2022-07-29T11:10:19;95678.97;;;23.56;31.98
73671;BME280;61968;48.178;11.566;2022-07-29T11:12:46;95678.56;;;23.80;30.74
73671;BME280;61968;48.178;11.566;2022-07-29T11:15:16;95681.06;;;23.68;30.50
73671;BME280;61968;48.178;11.566;2022-07-29T11:18:05;95680.44;;;23.71;29.64
73671;BME280;61968;48.178;11.566;2022-07-29T11:20:37;95675.03;;;23.71;29.36
73671;BME280;61968;48.178;11.566;2022-07-29T11:23:20;95675.22;;;23.66;29.01
73671;BME280;61968;48.178;11.566;2022-07-29T11:26:13;95677.38;;;23.38;29.17
73671;BME280;61968;48.178;11.566;2022-07-29T11:28:49;95671.09;;;23.86;29.38
73671;BME280;61968;48.178;11.566;2022-07-29T11:31:20;95666.19;;;24.05;27.80
73671;BME280;61968;48.178;11.566;2022-07-29T11:34:16;95669.19;;;23.86;26.35
73671;BME280;61968;48.178;11.566;2022-07-29T11:37:13;95676.13;;;23.61;26.70
73671;BME280;61968;48.178;11.566;2022-07-29T11:39:41;95669.63;;;23.53;26.93
73671;BME280;61968;48.178;11.566;2022-07-29T11:42:37;95671.59;;;23.88;27.53
73671;BME280;61968;48.178;11.566;2022-07-29T11:45:05;95666.19;;;23.96;27.87
73671;BME280;61968;48.178;11.566;2022-07-29T11:47:34;95659.66;;;24.32;27.88
73671;BME280;61968;48.178;11.566;2022-07-29T11:50:04;95668.06;;;24.39;27.05
73671;BME280;61968;48.178;11.566;2022-07-29T11:52:32;95654.69;;;24.52;27.09
73671;BME280;61968;48.178;11.566;2022-07-29T11:55:03;95651.06;;;24.39;26.40
73671;BME280;61968;48.178;11.566;2022-07-29T11:57:30;95658.19;;;23.74;26.01
73671;BME280;61968;48.178;11.566;2022-07-29T11:59:57;95658.03;;;23.62;25.91
73671;BME280;61968;48.178;11.566;2022-07-29T12:02:24;95654.53;;;23.52;27.03
73671;BME280;61968;48.178;11.566;2022-07-29T12:04:53;95664.03;;;23.24;27.75
73671;BME280;61968;48.178;11.566;2022-07-29T12:07:26;95664.69;;;23.38;27.39
73671;BME280;61968;48.178;11.566;2022-07-29T12:09:53;95648.66;;;23.42;27.77
73671;BME280;61968;48.178;11.566;2022-07-29T12:12:20;95654.06;;;23.50;27.50
73671;BME280;61968;48.178;11.566;2022-07-29T12:14:46;95643.81;;;23.78;28.00
73671;BME280;61968;48.178;11.566;2022-07-29T12:17:25;95645.72;;;23.78;27.69
73671;BME280;61968;48.178;11.566;2022-07-29T12:19:53;95644.09;;;23.86;27.63
73671;BME280;61968;48.178;11.566;2022-07-29T12:22:24;95645.19;;;23.67;28.32
73671;BME280;61968;48.178;11.566;2022-07-29T12:24:51;95644.88;;;23.77;28.83
73671;BME280;61968;48.178;11.566;2022-07-29T12:27:18;95642.66;;;23.53;28.81
73671;BME280;61968;48.178;11.566;2022-07-29T12:29:45;95641.03;;;23.52;28.98
73671;BME280;61968;48.178;11.566;2022-07-29T12:32:11;95643.56;;;23.40;29.24
73671;BME280;61968;48.178;11.566;2022-07-29T12:34:38;95635.94;;;23.33;30.03
73671;BME280;61968;48.178;11.566;2022-07-29T12:37:06;95649.47;;;23.77;28.88
73671;BME280;61968;48.178;11.566;2022-07-29T12:39:35;95638.72;;;23.86;29.29
73671;BME280;61968;48.178;11.566;2022-07-29T12:42:11;95639.81;;;24.11;28.85
73671;BME280;61968;48.178;11.566;2022-07-29T12:44:45;95631.22;;;24.26;28.32
73671;BME280;61968;48.178;11.566;2022-07-29T12:47:12;95629.31;;;24.18;27.75
73671;BME280;61968;48.178;11.566;2022-07-29T12:49:38;95639.34;;;24.09;27.85
73671;BME280;61968;48.178;11.566;2022-07-29T12:52:28;95634.53;;;23.62;28.44
73671;BME280;61968;48.178;11.566;2022-07-29T12:54:55;95635.69;;;23.87;28.17
73671;BME280;61968;48.178;11.566;2022-07-29T12:57:22;95639.50;;;23.86;28.74
73671;BME280;61968;48.178;11.566;2022-07-29T13:00:05;95640.59;;;23.76;28.25
73671;BME280;61968;48.178;11.566;2022-07-29T13:02:33;95632.50;;;24.02;28.37
73671;BME280;61968;48.178;11.566;2022-07-29T13:05:00;95632.22;;;23.78;27.77